Time;durP1;ratioP1;P1;durP2;ratioP2;P2;SDS_P1;SDS_P2;PMS_P1;PMS_P2;Temp;Humidity;BMP_temperature;BMP_pressure;BME280_temperature;BME280_humidity;BME280_pressure;Samples;Min_cycle;Max_cycle;Signal;HPM_P1;HPM_P2
2023/01/04 00:02:20;;;;;;;14.57;8.98;;;;;;;1.19;100.00;98489.00;5046199;28;20458;-64
2023/01/04 00:04:47;;;;;;;13.40;7.93;;;;;;;1.22;100.00;98492.19;5046634;28;20045;-63
2023/01/04 00:07:14;;;;;;;10.77;7.55;;;;;;;1.26;100.00;98490.03;5047281;28;20479;-64
2023/01/04 00:09:40;;;;;;;12.43;7.50;;;;;;;1.27;100.00;98484.53;5046988;28;20044;-65
2023/01/04 00:12:07;;;;;;;12.55;7.70;;;;;;;1.33;100.00;98480.38;5048430;28;20041;-63
2023/01/04 00:14:33;;;;;;;12.77;7.70;;;;;;;1.27;100.00;98475.69;5047593;28;20067;-63
2023/01/04 00:16:59;;;;;;;11.43;7.65;;;;;;;1.31;100.00;98474.38;5047680;28;20040;-63
2023/01/04 00:19:26;;;;;;;10.68;6.82;;;;;;;1.26;100.00;98469.50;5047608;28;20092;-65
2023/01/04 00:21:52;;;;;;;10.80;6.65;;;;;;;1.21;100.00;98468.34;5046548;28;20069;-64
2023/01/04 00:24:19;;;;;;;11.20;6.80;;;;;;;1.26;100.00;98456.16;5046503;28;20035;-63
2023/01/04 00:26:45;;;;;;;9.88;6.32;;;;;;;1.27;100.00;98452.53;5046414;28;20060;-62
2023/01/04 00:29:12;;;;;;;8.50;5.57;;;;;;;1.24;100.00;98452.84;5030279;28;20049;-62
2023/01/04 00:31:39;;;;;;;9.35;6.13;;;;;;;1.24;100.00;98454.66;5028707;28;20053;-64
2023/01/04 00:34:06;;;;;;;10.00;5.97;;;;;;;1.18;100.00;98456.16;5043338;28;20052;-65
2023/01/04 00:36:33;;;;;;;9.75;6.15;;;;;;;1.09;100.00;98446.47;5047239;28;20045;-64
2023/01/04 00:39:06;;;;;;;10.55;5.80;;;;;;;1.09;100.00;98435.81;5047866;28;20045;-63
2023/01/04 00:41:45;;;;;;;12.93;6.35;;;;;;;1.03;100.00;98429.28;5045667;28;20044;-64
2023/01/04 00:44:25;;;;;;;11.80;5.93;;;;;;;1.13;100.00;98426.47;5047164;28;20103;-63
2023/01/04 00:46:51;;;;;;;8.73;5.22;;;;;;;1.31;100.00;98434.34;5046825;28;20041;-64
2023/01/04 00:49:18;;;;;;;8.75;5.55;;;;;;;1.36;100.00;98421.31;5046630;28;20496;-64
2023/01/04 00:51:44;;;;;;;10.18;6.35;;;;;;;1.15;100.00;98414.63;5046453;28;20041;-64
2023/01/04 00:54:13;;;;;;;10.18;6.38;;;;;;;1.19;100.00;98411.66;5047351;28;20399;-64
2023/01/04 00:56:39;;;;;;;10.70;6.22;;;;;;;1.20;100.00;98413.31;5046159;28;20044;-64
2023/01/04 00:59:06;;;;;;;10.07;5.32;;;;;;;1.39;100.00;98414.81;5046349;28;20570;-64
2023/01/04 01:01:33;;;;;;;9.65;6.05;;;;;;;1.44;100.00;98409.84;5045625;28;20496;-63
2023/01/04 01:04:02;;;;;;;8.82;5.63;;;;;;;1.48;100.00;98413.00;5046462;28;20128;-64
2023/01/04 01:06:30;;;;;;;9.15;6.40;;;;;;;1.47;100.00;98414.00;5046851;28;20049;-64
2023/01/04 01:08:57;;;;;;;9.40;6.00;;;;;;;1.40;100.00;98420.00;5046927;28;20128;-61
2023/01/04 01:11:25;;;;;;;9.40;5.47;;;;;;;1.39;100.00;98421.00;5047017;28;20093;-64
2023/01/04 01:13:51;;;;;;;9.57;6.28;;;;;;;1.36;100.00;98420.50;5047167;28;20563;-63
2023/01/04 01:16:21;;;;;;;11.38;6.55;;;;;;;1.35;100.00;98430.34;5046372;28;20033;-64
2023/01/04 01:19:07;;;;;;;9.77;6.25;;;;;;;1.30;100.00;98432.69;5046925;28;20041;-63
2023/01/04 01:21:34;;;;;;;10.57;5.25;;;;;;;1.36;100.00;98434.66;5045093;28;20247;-64
2023/01/04 01:24:00;;;;;;;9.05;5.80;;;;;;;1.44;100.00;98423.19;5045070;28;20508;-64
2023/01/04 01:26:27;;;;;;;7.82;5.03;;;;;;;1.45;100.00;98435.50;5044975;28;20064;-64
2023/01/04 01:28:54;;;;;;;10.02;5.50;;;;;;;1.53;100.00;98429.34;5046649;28;20053;-63
2023/01/04 01:31:23;;;;;;;8.70;5.47;;;;;;;1.39;100.00;98433.50;5045931;28;20094;-64
2023/01/04 01:33:52;;;;;;;8.65;6.00;;;;;;;1.21;100.00;98434.50;5046144;28;20181;-63
2023/01/04 01:36:20;;;;;;;9.82;6.15;;;;;;;1.16;100.00;98442.16;5034026;28;20052;-64
2023/01/04 01:38:48;;;;;;;8.32;5.22;;;;;;;1.16;100.00;98440.34;5026346;28;20046;-63
2023/01/04 01:41:23;;;;;;;8.93;5.50;;;;;;;1.14;100.00;98438.84;5037886;28;20124;-64
2023/01/04 01:43:57;;;;;;;9.45;5.95;;;;;;;1.24;100.00;98420.81;5046455;28;20045;-63
2023/01/04 01:46:42;;;;;;;8.68;5.60;;;;;;;1.29;100.00;98431.00;5025698;28;20095;-63
2023/01/04 01:49:20;;;;;;;9.70;5.25;;;;;;;1.47;100.00;98427.34;5040159;28;20047;-63
2023/01/04 01:51:47;;;;;;;8.00;5.50;;;;;;;1.41;100.00;98424.31;5045231;28;20051;-62
2023/01/04 01:54:19;;;;;;;9.85;5.45;;;;;;;1.47;100.00;98432.69;5045307;28;20529;-63
2023/01/04 01:56:49;;;;;;;8.82;5.00;;;;;;;1.43;100.00;98432.16;5045647;28;20123;-63
2023/01/04 01:59:17;;;;;;;9.90;4.97;;;;;;;1.55;100.00;98435.34;5045699;28;20044;-63
2023/01/04 02:01:44;;;;;;;9.27;5.47;;;;;;;1.52;100.00;98427.66;5044598;28;20091;-64
2023/01/04 02:04:12;;;;;;;7.82;4.43;;;;;;;1.49;100.00;98433.34;5045411;28;20055;-63
2023/01/04 02:06:43;;;;;;;9.00;5.07;;;;;;;1.52;100.00;98431.16;5045141;28;20474;-63
2023/01/04 02:09:11;;;;;;;9.90;4.90;;;;;;;1.51;100.00;98428.69;5046080;28;20120;-63
2023/01/04 02:11:38;;;;;;;7.47;4.55;;;;;;;1.37;100.00;98419.50;5046824;28;20071;-63
2023/01/04 02:16:55;;;;;;;9.38;4.82;;;;;;;1.31;100.00;98421.00;5025745;28;20052;-63
2023/01/04 02:19:46;;;;;;;8.50;4.97;;;;;;;1.20;100.00;98416.81;5034433;28;20074;-63
2023/01/04 02:22:41;;;;;;;7.07;4.35;;;;;;;1.16;100.00;98405.66;5044828;28;20069;-64
2023/01/04 02:25:45;;;;;;;7.75;3.92;;;;;;;1.07;100.00;98411.13;5044145;28;20041;-64
2023/01/04 02:28:46;;;;;;;6.63;3.67;;;;;;;1.11;100.00;98407.97;5046356;28;20469;-64
2023/01/04 02:31:28;;;;;;;6.50;3.83;;;;;;;1.13;100.00;98402.47;5042405;28;20139;-63
2023/01/04 02:34:07;;;;;;;6.65;3.65;;;;;;;1.15;100.00;98395.97;5045097;28;20045;-64
2023/01/04 02:36:46;;;;;;;6.03;3.55;;;;;;;1.22;100.00;98401.47;5045591;28;20092;-63
2023/01/04 02:39:45;;;;;;;6.85;3.35;;;;;;;1.24;100.00;98391.47;5039400;28;20049;-64
2023/01/04 02:44:51;;;;;;;6.28;3.67;;;;;;;1.33;100.00;98386.97;5038925;28;20080;-64
2023/01/04 02:45:16;;;;;;;;;;;;;;;1.13;100.00;98389.13;5032952;28;20116;-64
2023/01/04 02:50:48;;;;;;;5.55;3.28;;;;;;;0.86;100.00;98383.94;5032805;28;20079;-64
2023/01/04 02:53:27;;;;;;;5.55;3.25;;;;;;;0.81;100.00;98372.09;5045239;28;20044;-64
2023/01/04 02:56:06;;;;;;;5.68;3.55;;;;;;;0.76;100.00;98372.59;5044062;28;20037;-63
2023/01/04 02:58:41;;;;;;;6.97;3.45;;;;;;;0.66;100.00;98372.72;5044998;28;20049;-63
2023/01/04 03:09:01;;;;;;;5.88;3.50;;;;;;;0.69;100.00;98355.56;5011552;28;20087;-63
2023/01/04 03:14:34;;;;;;;6.40;3.30;;;;;;;0.94;100.00;98352.94;5042734;28;20128;-63
2023/01/04 03:17:04;;;;;;;7.55;3.33;;;;;;;1.12;100.00;98350.13;5048308;28;20051;-63
2023/01/04 03:19:53;;;;;;;5.28;3.10;;;;;;;1.25;100.00;98355.78;5049231;28;20123;-63
2023/01/04 03:36:37;;;;;;;5.20;2.70;;;;;;;1.61;100.00;98345.72;5048255;28;20045;-63
2023/01/04 03:48:30;;;;;;;5.22;2.65;;;;;;;1.77;100.00;98320.84;5047547;28;20040;-63
2023/01/04 03:51:08;;;;;;;4.15;2.00;;;;;;;1.94;100.00;98326.94;5027277;28;20424;-62
2023/01/04 03:53:43;;;;;;;4.38;2.38;;;;;;;1.96;100.00;98314.25;5027801;28;20576;-64
2023/01/04 03:56:11;;;;;;;4.20;2.50;;;;;;;2.04;100.00;98321.41;5028422;28;20403;-61
2023/01/04 03:58:38;;;;;;;4.28;2.25;;;;;;;2.16;100.00;98335.22;5037945;28;20049;-62
2023/01/04 04:01:05;;;;;;;3.67;1.92;;;;;;;2.21;100.00;98325.66;5046977;28;20432;-62
2023/01/04 04:09:03;;;;;;;3.92;1.92;;;;;;;2.32;100.00;98312.94;5047516;28;20392;-63
2023/01/04 04:11:29;;;;;;;3.53;1.90;;;;;;;2.43;100.00;98314.38;5046570;28;20475;-63
2023/01/04 04:13:58;;;;;;;4.45;1.90;;;;;;;2.36;100.00;98316.91;5036123;28;20059;-62
2023/01/04 04:16:25;;;;;;;3.28;1.60;;;;;;;2.44;100.00;98316.03;5047114;28;20053;-62
2023/01/04 04:18:51;;;;;;;4.53;1.65;;;;;;;2.52;100.00;98318.66;5048211;28;20045;-64
2023/01/04 04:21:18;;;;;;;3.33;1.63;;;;;;;2.47;100.00;98313.84;5046568;28;20142;-62
2023/01/04 04:23:44;;;;;;;3.40;1.70;;;;;;;2.52;100.00;98309.81;5047383;28;20045;-62
2023/01/04 04:26:11;;;;;;;4.55;2.00;;;;;;;2.58;100.00;98304.56;5046372;28;20033;-63
2023/01/04 04:28:38;;;;;;;3.40;1.80;;;;;;;2.60;100.00;98299.91;5045896;28;20076;-62
2023/01/04 04:31:05;;;;;;;4.82;1.98;;;;;;;2.58;100.00;98296.56;5046561;28;20049;-62
2023/01/04 04:33:31;;;;;;;3.72;1.83;;;;;;;2.56;100.00;98287.06;5048314;28;20059;-64
2023/01/04 04:35:58;;;;;;;6.25;1.70;;;;;;;2.57;100.00;98289.56;5047291;28;20120;-64
2023/01/04 04:38:24;;;;;;;3.28;1.60;;;;;;;2.58;100.00;98285.84;5047349;28;20045;-63
2023/01/04 04:43:36;;;;;;;3.50;1.65;;;;;;;2.55;100.00;98291.56;5048116;28;20052;-63
2023/01/04 04:46:02;;;;;;;4.00;1.60;;;;;;;2.58;100.00;98288.53;5046695;28;20073;-63
2023/01/04 04:48:30;;;;;;;3.33;1.50;;;;;;;2.53;100.00;98285.56;5047887;28;20053;-63
2023/01/04 04:50:56;;;;;;;3.72;1.40;;;;;;;2.62;100.00;98272.16;5045041;28;20063;-64
2023/01/04 04:53:23;;;;;;;3.78;1.65;;;;;;;2.58;100.00;98277.03;5041081;28;20454;-63
2023/01/04 04:55:50;;;;;;;2.92;1.55;;;;;;;2.57;100.00;98264.66;5046509;28;20410;-62
2023/01/04 04:58:17;;;;;;;3.83;1.27;;;;;;;2.61;100.00;98265.94;5047868;28;20053;-62
2023/01/04 05:00:44;;;;;;;3.17;1.63;;;;;;;2.65;100.00;98266.44;5044895;28;20659;-63
2023/01/04 05:03:11;;;;;;;3.35;1.35;;;;;;;2.64;100.00;98264.75;5047387;28;20043;-63
2023/01/04 05:05:37;;;;;;;2.63;1.33;;;;;;;2.68;100.00;98268.75;5045598;28;20041;-63
2023/01/04 05:08:04;;;;;;;2.83;1.70;;;;;;;2.69;100.00;98263.22;5046981;28;20053;-62
2023/01/04 05:10:30;;;;;;;2.60;1.60;;;;;;;2.69;100.00;98263.22;5046090;28;20052;-64
2023/01/04 05:13:00;;;;;;;2.42;1.15;;;;;;;2.72;100.00;98259.34;5049777;28;20052;-63
2023/01/04 05:15:30;;;;;;;3.13;1.50;;;;;;;2.86;100.00;98257.75;5046465;28;20412;-62
2023/01/04 05:17:57;;;;;;;4.68;1.50;;;;;;;3.04;100.00;98257.44;5045309;28;20504;-63
2023/01/04 05:20:24;;;;;;;2.22;1.20;;;;;;;3.02;100.00;98258.63;5045841;28;20045;-62
2023/01/04 05:22:50;;;;;;;2.40;1.33;;;;;;;2.95;100.00;98261.19;5045855;28;20045;-62
2023/01/04 05:25:18;;;;;;;2.55;1.23;;;;;;;2.97;100.00;98262.66;5045860;28;20527;-63
2023/01/04 05:27:44;;;;;;;3.38;1.25;;;;;;;2.99;100.00;98263.31;5047477;28;20053;-62
2023/01/04 05:32:58;;;;;;;2.17;1.10;;;;;;;3.17;100.00;98256.78;5046884;28;20052;-63
2023/01/04 05:35:25;;;;;;;2.80;1.17;;;;;;;3.06;100.00;98251.91;5045852;28;20045;-63
2023/01/04 05:37:52;;;;;;;3.85;1.00;;;;;;;3.14;100.00;98251.81;5045665;28;20040;-63
2023/01/04 05:40:19;;;;;;;3.05;1.30;;;;;;;3.20;100.00;98251.06;5046753;28;20048;-64
2023/01/04 05:42:47;;;;;;;2.38;1.10;;;;;;;3.21;100.00;98244.72;5043783;28;20041;-63
2023/01/04 05:45:15;;;;;;;1.98;0.90;;;;;;;3.27;100.00;98242.34;5045937;28;20128;-63
2023/01/04 05:47:42;;;;;;;3.60;1.10;;;;;;;3.34;100.00;98248.59;5046765;28;20319;-63
2023/01/04 05:50:09;;;;;;;2.55;1.00;;;;;;;3.40;100.00;98241.69;5046022;28;20044;-64
2023/01/04 05:52:36;;;;;;;2.33;1.17;;;;;;;3.41;100.00;98246.00;5044930;28;20040;-62
2023/01/04 05:55:03;;;;;;;2.30;0.90;;;;;;;3.44;100.00;98251.84;5025646;28;20072;-61
2023/01/04 05:57:29;;;;;;;2.25;1.10;;;;;;;3.56;100.00;98237.97;5045648;28;20441;-62
2023/01/04 05:59:56;;;;;;;2.08;0.90;;;;;;;3.57;99.91;98245.03;5046188;28;20080;-61
2023/01/04 06:02:24;;;;;;;1.40;0.73;;;;;;;3.59;99.83;98233.09;5044767;28;20412;-61
2023/01/04 06:04:51;;;;;;;2.70;0.90;;;;;;;3.65;99.60;98239.56;5045329;28;20037;-61
2023/01/04 06:07:25;;;;;;;3.75;1.00;;;;;;;3.66;99.63;98230.50;5044286;28;20075;-61
2023/01/04 06:09:52;;;;;;;5.38;1.08;;;;;;;3.73;99.16;98239.44;5045147;28;20048;-61
2023/01/04 06:12:19;;;;;;;3.15;1.17;;;;;;;3.85;98.79;98241.66;5047619;28;20124;-60
2023/01/04 06:14:46;;;;;;;1.40;0.70;;;;;;;3.87;98.76;98247.69;5044501;28;20072;-61
2023/01/04 06:17:12;;;;;;;4.30;0.90;;;;;;;3.91;98.36;98238.25;5046159;28;20390;-61
2023/01/04 06:19:39;;;;;;;1.63;0.90;;;;;;;3.92;98.34;98233.69;5045900;28;20260;-61
2023/01/04 06:22:06;;;;;;;1.50;0.90;;;;;;;3.94;98.57;98232.50;5044355;28;20041;-61
2023/01/04 06:24:32;;;;;;;1.92;0.70;;;;;;;4.10;97.14;98241.34;5045738;28;20072;-61
2023/01/04 06:27:00;;;;;;;1.77;0.90;;;;;;;4.11;96.87;98234.97;5045723;28;20037;-61
2023/01/04 06:29:27;;;;;;;1.27;0.70;;;;;;;4.21;96.01;98237.34;5046223;28;20041;-60
2023/01/04 06:31:54;;;;;;;1.77;0.52;;;;;;;4.32;95.37;98226.13;5044534;28;20044;-60
2023/01/04 06:34:20;;;;;;;2.30;0.93;;;;;;;4.32;95.52;98225.28;5043784;28;20514;-61
2023/01/04 06:36:56;;;;;;;1.80;0.80;;;;;;;4.34;95.20;98225.91;5042471;28;20117;-61
2023/01/04 06:39:22;;;;;;;1.65;1.00;;;;;;;4.42;94.74;98220.44;5045355;28;20107;-60
2023/01/04 06:41:49;;;;;;;1.48;0.85;;;;;;;4.39;95.05;98226.19;5044432;28;20090;-61
2023/01/04 06:44:15;;;;;;;3.75;1.00;;;;;;;4.40;95.10;98227.84;5043925;28;20123;-60
2023/01/04 06:46:42;;;;;;;2.55;0.73;;;;;;;4.39;95.24;98226.19;5048347;28;20117;-61
2023/01/04 06:49:08;;;;;;;1.45;0.90;;;;;;;4.42;95.11;98223.94;5050389;28;20128;-61
2023/01/04 06:51:35;;;;;;;3.03;0.70;;;;;;;4.45;94.88;98219.25;5047903;28;20515;-61
2023/01/04 06:54:01;;;;;;;2.85;0.95;;;;;;;4.44;95.22;98221.09;5049989;28;20524;-60
2023/01/04 06:56:29;;;;;;;3.15;0.80;;;;;;;4.51;95.08;98211.25;5049080;28;20041;-60
2023/01/04 06:58:56;;;;;;;2.30;0.63;;;;;;;4.51;94.96;98213.94;5047727;28;20519;-61
2023/01/04 07:01:23;;;;;;;2.03;0.90;;;;;;;4.58;95.00;98210.47;5048382;28;20060;-61
2023/01/04 07:03:49;;;;;;;1.65;0.70;;;;;;;4.53;95.61;98214.56;5049547;28;20045;-61
2023/01/04 07:06:16;;;;;;;1.88;0.75;;;;;;;4.65;94.27;98216.75;5049180;28;20045;-61
2023/01/04 07:08:42;;;;;;;2.58;0.88;;;;;;;4.67;94.86;98214.69;5048443;28;20576;-62
2023/01/04 07:11:09;;;;;;;2.97;0.70;;;;;;;4.69;94.80;98218.03;5047898;28;20041;-61
2023/01/04 07:13:35;;;;;;;3.17;1.00;;;;;;;4.74;94.91;98222.78;5046230;28;20064;-61
2023/01/04 07:16:02;;;;;;;2.67;0.70;;;;;;;4.75;95.55;98221.78;5048434;28;20108;-61
2023/01/04 07:18:28;;;;;;;2.08;0.80;;;;;;;4.74;96.40;98222.78;5049668;28;20838;-59
2023/01/04 07:20:55;;;;;;;1.20;0.65;;;;;;;4.73;97.45;98223.81;5048207;28;20110;-61
2023/01/04 07:23:21;;;;;;;2.17;0.68;;;;;;;4.71;98.39;98223.19;5046968;28;20131;-61
2023/01/04 07:25:48;;;;;;;2.33;0.68;;;;;;;4.74;98.15;98212.91;5048089;28;20045;-61
2023/01/04 07:29:13;;;;;;;1.83;0.65;;;;;;;4.73;98.82;98213.09;5049247;28;20053;-61
2023/01/04 07:31:06;;;;;;;2.85;1.00;;;;;;;4.72;99.45;98203.38;5047029;28;20509;-61
2023/01/04 07:33:33;;;;;;;1.13;0.60;;;;;;;4.65;100.00;98197.97;5048818;28;20040;-61
2023/01/04 07:36:04;;;;;;;3.67;1.08;;;;;;;4.55;100.00;98196.44;5047894;28;20447;-61
2023/01/04 07:38:32;;;;;;;;;;;;;;;4.55;100.00;98195.59;5048266;28;19920;-62
2023/01/04 07:40:58;;;;;;;3.13;1.00;;;;;;;4.50;100.00;98198.03;5047206;28;19955;-61
2023/01/04 07:43:24;;;;;;;2.28;1.00;;;;;;;4.55;100.00;98187.56;5048256;28;20487;-61
2023/01/04 07:45:54;;;;;;;2.90;1.02;;;;;;;4.48;100.00;98194.69;5044221;28;20051;-60
2023/01/04 07:48:21;;;;;;;3.28;1.10;;;;;;;4.51;100.00;98184.44;5046206;28;20059;-61
2023/01/04 07:50:48;;;;;;;3.88;1.10;;;;;;;4.58;100.00;98180.97;5042513;28;20384;-61
2023/01/04 07:53:15;;;;;;;2.55;0.88;;;;;;;4.54;100.00;98188.59;5045574;28;20045;-61
2023/01/04 07:55:41;;;;;;;1.85;0.65;;;;;;;4.53;100.00;98178.84;5045511;28;20073;-61
2023/01/04 07:58:08;;;;;;;2.92;0.88;;;;;;;4.51;100.00;98183.59;5043399;28;20037;-61
2023/01/04 08:00:34;;;;;;;2.60;0.70;;;;;;;4.55;100.00;98179.50;5043381;28;20063;-60
2023/01/04 08:03:01;;;;;;;2.20;0.82;;;;;;;4.51;100.00;98176.41;5043067;28;20060;-61
2023/01/04 08:05:31;;;;;;;2.10;0.90;;;;;;;4.52;100.00;98172.69;5045647;28;20102;-62
2023/01/04 08:07:57;;;;;;;1.83;0.70;;;;;;;4.58;100.00;98176.44;5044415;28;20135;-60
2023/01/04 08:10:23;;;;;;;3.03;0.98;;;;;;;4.64;100.00;98161.44;5045465;28;20076;-61
2023/01/04 08:12:50;;;;;;;4.20;1.02;;;;;;;4.68;99.79;98160.84;5050881;28;20055;-61
2023/01/04 08:15:16;;;;;;;4.88;1.02;;;;;;;4.71;99.24;98159.63;5047545;28;20047;-61
2023/01/04 08:17:43;;;;;;;3.85;0.90;;;;;;;4.74;99.27;98153.88;5047980;28;20075;-62
2023/01/04 08:20:10;;;;;;;3.63;0.98;;;;;;;4.85;97.58;98162.41;5048569;28;20484;-61
2023/01/04 08:22:36;;;;;;;3.50;1.45;;;;;;;4.94;96.80;98158.56;5046216;28;20071;-63
2023/01/04 08:25:05;;;;;;;2.78;0.80;;;;;;;4.99;96.16;98153.44;5046962;28;20048;-61
2023/01/04 08:27:32;;;;;;;1.60;0.70;;;;;;;4.98;96.76;98148.25;5046984;28;20041;-61
2023/01/04 08:29:58;;;;;;;2.28;1.02;;;;;;;5.06;94.77;98148.91;5046856;28;20079;-61
2023/01/04 08:32:25;;;;;;;3.90;0.60;;;;;;;5.16;94.41;98145.88;5046745;28;20076;-61
2023/01/04 08:34:53;;;;;;;0.75;0.55;;;;;;;5.19;93.06;98148.19;5047485;28;20049;-61
2023/01/04 08:37:19;;;;;;;4.07;1.13;;;;;;;5.15;94.38;98136.19;5047083;28;20041;-62
2023/01/04 08:39:46;;;;;;;1.80;0.57;;;;;;;5.19;93.66;98133.91;5048231;28;20090;-61
2023/01/04 08:42:15;;;;;;;1.17;0.68;;;;;;;5.28;92.70;98124.69;5046358;28;20056;-61
2023/01/04 08:44:57;;;;;;;2.35;0.80;;;;;;;5.21;93.34;98121.94;5044971;28;20120;-61
2023/01/04 08:47:26;;;;;;;2.53;0.80;;;;;;;5.28;93.29;98124.69;5047400;28;20491;-61
2023/01/04 08:49:53;;;;;;;1.80;0.60;;;;;;;5.28;93.13;98113.13;5047370;28;20052;-64
2023/01/04 08:52:20;;;;;;;1.05;0.60;;;;;;;5.38;92.09;98108.19;5045667;28;20072;-64
2023/01/04 08:54:48;;;;;;;2.42;1.35;;;;;;;5.35;92.91;98108.59;5046253;28;20041;-63
2023/01/04 08:57:18;;;;;;;1.67;0.75;;;;;;;5.42;92.66;98122.06;5047154;28;20048;-63
2023/01/04 08:59:44;;;;;;;1.60;0.70;;;;;;;5.46;92.20;98115.25;5047405;28;20176;-64
2023/01/04 09:02:21;;;;;;;2.50;0.70;;;;;;;5.57;91.32;98121.91;5043522;28;20044;-60
2023/01/04 09:04:48;;;;;;;3.30;1.23;;;;;;;5.55;91.16;98110.53;5045879;28;20124;-60
2023/01/04 09:07:15;;;;;;;3.65;1.38;;;;;;;5.57;91.63;98128.09;5046646;28;20102;-58
2023/01/04 09:09:42;;;;;;;3.17;1.13;;;;;;;5.63;91.59;98131.84;5046257;28;20073;-60
2023/01/04 09:12:08;;;;;;;2.60;1.02;;;;;;;5.71;92.04;98133.53;5045492;28;20051;-60
2023/01/04 09:14:35;;;;;;;2.15;0.80;;;;;;;5.72;91.23;98136.00;5046516;28;20045;-60
2023/01/04 09:17:01;;;;;;;1.73;0.60;;;;;;;5.78;90.95;98141.63;5045913;28;20179;-59
2023/01/04 09:19:28;;;;;;;4.63;2.03;;;;;;;5.83;91.18;98142.66;5046677;28;20033;-59
2023/01/04 09:21:54;;;;;;;16.00;6.53;;;;;;;5.89;90.66;98153.66;5044719;28;20504;-61
2023/01/04 09:24:21;;;;;;;8.45;2.88;;;;;;;5.90;91.30;98152.63;5046477;28;20049;-61
2023/01/04 09:26:48;;;;;;;11.48;2.75;;;;;;;5.92;91.41;98140.63;5045869;28;20040;-62
2023/01/04 09:29:14;;;;;;;2.03;0.93;;;;;;;5.94;91.58;98137.75;5055912;28;20094;-60
2023/01/04 09:31:41;;;;;;;13.75;3.60;;;;;;;5.98;91.11;98136.31;5052414;28;20421;-61
2023/01/04 09:34:10;;;;;;;3.67;1.30;;;;;;;6.02;91.55;98142.94;5047186;28;20048;-60
2023/01/04 09:36:41;;;;;;;;;;;;;;;5.98;92.10;98131.75;5026605;28;20045;-60
2023/01/04 09:39:07;;;;;;;;;;;;;;;6.03;91.71;98133.00;5037974;28;19968;-59
2023/01/04 09:41:49;;;;;;;;;;;;;;;6.03;92.64;98139.25;5045888;28;19931;-59
2023/01/04 09:44:35;;;;;;;;;;;;;;;6.11;91.14;98141.75;5046874;28;19924;-59
2023/01/04 09:47:39;;;;;;;4.40;1.92;;;;;;;6.16;91.11;98151.88;5046158;28;20392;-60
2023/01/04 09:50:15;;;;;;;5.40;2.92;;;;;;;6.19;90.31;98135.31;5045457;28;20080;-60
2023/01/04 09:53:10;;;;;;;2.42;0.98;;;;;;;6.21;90.73;98135.13;5045723;28;20140;-61
2023/01/04 09:55:46;;;;;;;3.95;1.60;;;;;;;6.21;91.01;98132.44;5040113;28;20122;-60
2023/01/04 09:58:39;;;;;;;2.58;1.10;;;;;;;6.26;90.64;98129.97;5045671;28;20044;-61
2023/01/04 10:01:22;;;;;;;4.25;2.30;;;;;;;6.31;90.29;98140.13;5044689;28;20076;-61
2023/01/04 10:04:05;;;;;;;2.90;1.27;;;;;;;6.38;89.84;98128.31;5046181;28;20041;-60
2023/01/04 10:06:33;;;;;;;3.85;1.67;;;;;;;6.44;89.88;98128.53;5045827;28;20040;-60
2023/01/04 10:09:08;;;;;;;3.55;1.20;;;;;;;6.50;89.56;98111.56;5046277;28;20587;-60
2023/01/04 10:11:35;;;;;;;6.47;3.15;;;;;;;6.55;90.34;98103.69;5044230;28;20044;-61
2023/01/04 10:14:37;;;;;;;3.78;1.00;;;;;;;6.70;89.87;98108.84;5046266;28;20049;-61
2023/01/04 10:17:28;;;;;;;2.33;1.23;;;;;;;6.75;89.58;98098.28;5044956;28;20048;-60
2023/01/04 10:20:28;;;;;;;2.63;1.30;;;;;;;6.85;89.03;98108.63;5040466;28;20520;-60
2023/01/04 10:23:34;;;;;;;4.82;2.17;;;;;;;6.91;88.74;98101.59;5044884;28;20045;-60
2023/01/04 10:26:13;;;;;;;4.05;1.75;;;;;;;7.01;89.30;98098.47;5045025;28;20099;-61
2023/01/04 10:29:23;;;;;;;5.07;1.73;;;;;;;7.08;88.40;98096.56;5044452;28;20037;-60
2023/01/04 10:31:56;;;;;;;1.65;0.68;;;;;;;7.12;88.70;98091.59;5044480;28;20045;-62
2023/01/04 10:34:36;;;;;;;3.47;1.30;;;;;;;7.16;87.82;98079.38;5024596;28;20506;-63
2023/01/04 10:37:12;;;;;;;2.88;0.88;;;;;;;7.22;87.52;98073.13;5044453;28;20112;-58
2023/01/04 10:39:39;;;;;;;2.42;1.20;;;;;;;7.28;87.51;98071.44;5039281;28;20083;-59
2023/01/04 10:42:18;;;;;;;1.10;0.50;;;;;;;7.30;87.89;98058.59;5043696;28;20095;-58
2023/01/04 10:45:03;;;;;;;2.90;0.75;;;;;;;7.37;87.77;98063.97;5045780;28;20041;-59
2023/01/04 10:47:50;;;;;;;2.90;1.20;;;;;;;7.43;87.57;98055.00;5025531;28;20702;-59
2023/01/04 10:50:26;;;;;;;1.58;0.60;;;;;;;7.35;87.16;98055.25;5045172;28;20076;-59
2023/01/04 10:53:02;;;;;;;2.25;0.80;;;;;;;7.35;88.46;98048.00;5045596;28;20033;-56
2023/01/04 10:56:00;;;;;;;1.30;0.60;;;;;;;7.42;87.43;98042.59;5045246;28;20143;-57
2023/01/04 10:59:18;;;;;;;2.42;0.60;;;;;;;7.46;88.20;98041.13;5017645;28;20057;-59
2023/01/04 11:02:05;;;;;;;1.80;0.80;;;;;;;7.44;88.42;98039.69;5024511;28;20049;-58
2023/01/04 11:04:38;;;;;;;1.80;0.65;;;;;;;7.48;88.47;98038.22;5025286;28;20124;-62
2023/01/04 11:07:21;;;;;;;1.55;0.60;;;;;;;7.51;87.66;98032.38;5025431;28;20715;-64
2023/01/04 11:09:56;;;;;;;2.88;0.93;;;;;;;7.51;87.96;98037.75;5042270;28;20045;-62
2023/01/04 11:12:23;;;;;;;1.75;0.80;;;;;;;7.47;88.10;98034.69;5043383;28;20116;-60
2023/01/04 11:14:51;;;;;;;2.65;0.82;;;;;;;7.47;89.20;98041.91;5045514;28;20041;-60
2023/01/04 11:17:20;;;;;;;7.35;3.10;;;;;;;7.42;88.84;98038.00;5046655;28;20073;-59
2023/01/04 11:19:46;;;;;;;2.63;0.90;;;;;;;7.39;89.60;98030.38;5045328;28;20192;-60
2023/01/04 11:22:19;;;;;;;1.83;0.60;;;;;;;7.46;89.02;98037.59;5045608;28;20315;-61
2023/01/04 11:24:51;;;;;;;4.93;1.73;;;;;;;7.39;90.03;98022.28;5044978;28;20041;-62
2023/01/04 11:27:52;;;;;;;5.67;1.17;;;;;;;7.41;88.77;98016.69;5048036;28;20028;-62
2023/01/04 11:30:22;;;;;;;11.50;4.88;;;;;;;7.36;90.33;98017.31;5056708;28;20044;-61
2023/01/04 11:33:10;;;;;;;4.68;2.10;;;;;;;7.42;90.15;98016.44;5050931;28;20052;-61
2023/01/04 11:35:42;;;;;;;3.00;1.10;;;;;;;7.33;90.86;98019.63;5048577;28;20508;-61
2023/01/04 11:38:15;;;;;;;5.90;3.22;;;;;;;7.37;90.25;98013.56;5049319;28;20048;-62
2023/01/04 11:41:00;;;;;;;4.18;1.60;;;;;;;7.37;90.72;98010.88;5046977;28;20120;-61
2023/01/04 11:43:35;;;;;;;1.77;0.82;;;;;;;7.39;90.20;98010.69;5049088;28;20052;-62
2023/01/04 11:46:19;;;;;;;2.42;0.85;;;;;;;7.37;91.40;98002.00;5048484;28;20048;-62
2023/01/04 11:48:47;;;;;;;6.22;2.13;;;;;;;7.39;90.36;98006.13;5048713;28;20099;-62
2023/01/04 11:51:35;;;;;;;6.20;2.83;;;;;;;7.42;90.72;98000.28;5045141;28;20493;-61
2023/01/04 11:54:14;;;;;;;2.00;0.80;;;;;;;7.49;90.15;98000.25;5048986;28;20518;-61
2023/01/04 11:57:07;;;;;;;3.35;0.93;;;;;;;7.46;90.94;98005.25;5047680;28;20041;-61
2023/01/04 12:00:09;;;;;;;3.33;1.50;;;;;;;7.49;91.42;98002.94;5028409;28;20057;-61
2023/01/04 12:02:35;;;;;;;2.47;0.82;;;;;;;7.48;91.57;98003.97;5034675;28;20539;-61
2023/01/04 12:05:22;;;;;;;5.25;2.65;;;;;;;7.50;91.56;98003.78;5046894;28;20052;-59
2023/01/04 12:07:57;;;;;;;2.15;0.80;;;;;;;7.52;91.92;98005.19;5048571;28;20045;-61
2023/01/04 12:10:26;;;;;;;7.28;2.10;;;;;;;7.53;92.21;98006.03;5047261;28;20099;-61
2023/01/04 12:12:54;;;;;;;3.28;0.90;;;;;;;7.62;91.69;98009.28;5046944;28;20269;-61
2023/01/04 12:15:42;;;;;;;5.97;2.72;;;;;;;7.64;91.91;98004.53;5047841;28;20068;-61
2023/01/04 12:18:19;;;;;;;2.85;1.02;;;;;;;7.72;91.59;98004.25;5047562;28;20087;-61
2023/01/04 12:20:46;;;;;;;5.38;2.92;;;;;;;7.73;91.90;98000.53;5045713;28;20857;-61
2023/01/04 12:23:13;;;;;;;10.38;1.30;;;;;;;7.76;92.04;97992.00;5047991;28;20045;-61
2023/01/04 12:25:42;;;;;;;2.40;0.98;;;;;;;7.77;92.15;98001.75;5046676;28;20123;-62
2023/01/04 12:28:28;;;;;;;1.90;0.52;;;;;;;7.89;91.33;97985.66;5047002;28;20625;-61
2023/01/04 12:31:17;;;;;;;1.25;0.50;;;;;;;7.91;91.15;97993.53;5045893;28;20048;-60
2023/01/04 12:33:46;;;;;;;3.55;1.95;;;;;;;7.86;91.89;97999.63;5044808;28;20447;-59
2023/01/04 12:36:14;;;;;;;4.32;1.60;;;;;;;7.87;91.12;97979.69;5046982;28;20045;-58
2023/01/04 12:38:53;;;;;;;2.65;0.95;;;;;;;7.87;91.51;97978.84;5047806;28;20068;-60
2023/01/04 12:41:21;;;;;;;1.40;0.45;;;;;;;7.88;91.20;97977.78;5045458;28;20114;-59
2023/01/04 12:43:48;;;;;;;1.50;0.80;;;;;;;7.84;91.92;97981.97;5047479;28;20045;-60
2023/01/04 12:49:27;;;;;;;7.70;1.92;;;;;;;7.87;92.63;97978.84;5046235;28;20086;-59
2023/01/04 12:52:06;;;;;;;3.13;1.63;;;;;;;7.92;93.33;97969.06;5045968;28;20544;-59
2023/01/04 12:54:56;;;;;;;3.70;2.25;;;;;;;7.90;93.80;97965.78;5046351;28;20099;-60
2023/01/04 12:57:24;;;;;;;3.58;1.27;;;;;;;7.91;93.89;97963.88;5047255;28;20112;-59